首页
METAR-TAF:

METAR-TAF

机场 :

Lumberton Municipal Airport

兰伯顿, 北卡罗来纳州, 美国

纬度: 34-36-26N, 经度: 079-03-36W, 海拔: 38米

METAR: 丢失

时间: 14:42 (19:42 UTC)

预报

该预报发布于2小时和22分钟前的17:20 UTC
预报有效从17日的 18点(UTC)到 18日的 18点(UTC)
风速15节,风向北转东北,有时为25节阵风
能見度: 10公里
散云层高于2500英尺
多云层高于5000英尺
从 17日的 2100点(UTC)
风速10节,风向
能見度: 10公里
散云层高于2500英尺
多云层高于5000英尺
从 18日的 0500点(UTC)
风速5节,风向
能見度: 10公里
阴天层高于2500英尺
从 18日的 1200点(UTC)
风速3节,风向北转西北
能見度: 10公里
阴天层高于5000英尺
从 18日的 1600点(UTC)
风速3节,风向西转西北
能見度: 10公里
阴天层高于5000英尺

TAF: KLBT 171720Z 1718/1818 02015G25KT P6SM SCT025 BKN050 FM172100 01010KT P6SM SCT025 BKN050 FM180500 36005KT P6SM OVC025 FM181200 33003KT P6SM OVC050 FM181600 29003KT P6SM OVC050 AMD NOT SKED

超过4000个机场的气象观测和天气预报(METAR&TAF报告)。

可查询的气象台以黄色和红色小点在地图上表示。

将鼠标移到小点上方,可查看气象台名称。

然后点击查看天气观测和预报。

如需切换地图:点击带黑十字的绿色按钮放大地图;点击带横线的绿色按钮缩小地图;或者点击绿色箭头查看邻近地区的地图。


METAR-TAF: